Time;durP1;ratioP1;P1;durP2;ratioP2;P2;SDS_P1;SDS_P2;PMS_P1;PMS_P2;Temp;Humidity;BMP_temperature;BMP_pressure;BME280_temperature;BME280_humidity;BME280_pressure;Samples;Min_cycle;Max_cycle;Signal;HPM_P1;HPM_P2
2021/07/05 00:00:11;;;;;;;8.45;7.75;;;;;;;22.64;51.44;100395.66;700945;28;22344;-64
2021/07/05 00:00:34;;;;;;;8.80;8.00;;;;;;;22.64;51.48;100398.41;698133;28;63229;-64
2021/07/05 00:00:55;;;;;;;9.75;7.85;;;;;;;22.63;51.81;100402.25;697552;28;46680;-63
2021/07/05 00:01:17;;;;;;;8.75;7.85;;;;;;;22.61;51.69;100399.78;698451;28;46410;-64
2021/07/05 00:01:38;;;;;;;8.27;7.57;;;;;;;22.59;51.82;100399.22;698538;28;46160;-63
2021/07/05 00:01:59;;;;;;;8.48;7.72;;;;;;;22.57;51.99;100395.06;699390;28;22414;-63
2021/07/05 00:02:21;;;;;;;9.00;8.20;;;;;;;22.54;52.07;100396.44;698710;28;22646;-64
2021/07/05 00:02:42;;;;;;;8.60;7.80;;;;;;;22.54;52.20;100398.34;699136;28;22399;-64
2021/07/05 00:03:04;;;;;;;8.35;7.65;;;;;;;22.53;52.20;100400.28;699328;28;21316;-65
2021/07/05 00:03:25;;;;;;;8.45;7.70;;;;;;;22.50;52.40;100400.81;698128;28;52104;-64
2021/07/05 00:03:46;;;;;;;8.57;7.78;;;;;;;22.46;52.55;100397.75;697940;28;44399;-64
2021/07/05 00:04:07;;;;;;;8.63;7.88;;;;;;;22.47;52.54;100398.59;698645;28;23482;-63
2021/07/05 00:04:29;;;;;;;8.75;8.05;;;;;;;22.46;52.63;100402.41;699519;28;22323;-64
2021/07/05 00:04:51;;;;;;;8.77;8.07;;;;;;;22.44;52.78;100397.19;699389;28;21550;-64
2021/07/05 00:05:13;;;;;;;8.38;7.68;;;;;;;22.42;52.68;100401.31;698607;28;45272;-63
2021/07/05 00:05:34;;;;;;;8.18;7.40;;;;;;;22.39;52.88;100401.84;698673;28;12549;-64
2021/07/05 00:05:55;;;;;;;9.32;7.75;;;;;;;22.36;52.98;100397.69;699266;28;16093;-64
2021/07/05 00:06:18;;;;;;;8.52;7.72;;;;;;;22.34;52.80;100390.81;700050;28;873;-64
2021/07/05 00:06:39;;;;;;;8.98;8.18;;;;;;;22.34;52.79;100391.63;697397;28;69493;-64
2021/07/05 00:07:00;;;;;;;9.23;8.32;;;;;;;22.34;52.64;100396.31;699467;28;5094;-63
2021/07/05 00:07:21;;;;;;;8.70;7.90;;;;;;;22.31;52.83;100398.47;698203;28;21660;-63
2021/07/05 00:07:46;;;;;;;8.75;8.00;;;;;;;22.33;53.02;100397.38;698996;28;22387;-64
2021/07/05 00:08:09;;;;;;;9.02;8.23;;;;;;;22.30;52.83;100396.84;696044;28;103541;-63
2021/07/05 00:08:31;;;;;;;8.60;7.90;;;;;;;22.30;53.08;100396.84;697354;28;69682;-64
2021/07/05 00:08:52;;;;;;;8.23;7.47;;;;;;;22.31;52.89;100397.66;699338;28;17144;-63
2021/07/05 00:09:13;;;;;;;8.13;7.40;;;;;;;22.27;53.08;100390.97;698401;28;23461;-65
2021/07/05 00:09:34;;;;;;;8.40;7.70;;;;;;;22.27;53.06;100402.81;698446;28;21565;-64
2021/07/05 00:09:56;;;;;;;8.57;7.78;;;;;;;22.24;53.13;100397.00;698241;28;41391;-64
2021/07/05 00:10:19;;;;;;;8.35;7.65;;;;;;;22.26;53.09;100394.84;698538;28;44273;-64
2021/07/05 00:10:40;;;;;;;9.45;8.48;;;;;;;22.25;53.19;100407.75;697339;28;59861;-65
2021/07/05 00:11:03;;;;;;;9.50;8.57;;;;;;;22.24;53.20;100397.00;699107;28;22384;-64
2021/07/05 00:11:24;;;;;;;9.15;8.25;;;;;;;22.26;52.90;100409.41;698042;28;45251;-64
2021/07/05 00:11:45;;;;;;;8.95;8.05;;;;;;;22.27;52.90;100410.22;698965;28;22437;-63
2021/07/05 00:12:07;;;;;;;8.63;7.93;;;;;;;22.25;52.94;100391.25;699439;28;10916;-64
2021/07/05 00:12:28;;;;;;;8.27;7.57;;;;;;;22.26;53.11;100408.59;697459;28;45228;-65
2021/07/05 00:12:51;;;;;;;8.40;7.70;;;;;;;22.24;53.22;100405.25;699437;28;22414;-64
2021/07/05 00:13:12;;;;;;;8.85;8.05;;;;;;;22.24;53.29;100406.09;697790;28;70307;-63
2021/07/05 00:13:33;;;;;;;8.90;8.10;;;;;;;22.25;52.99;100402.25;699219;28;22889;-63
2021/07/05 00:13:54;;;;;;;8.32;7.63;;;;;;;22.23;53.39;100398.13;699194;28;16990;-64
2021/07/05 00:14:15;;;;;;;8.52;7.72;;;;;;;22.23;53.37;100407.19;698691;28;21552;-63
2021/07/05 00:14:37;;;;;;;8.60;7.90;;;;;;;22.22;53.41;100408.25;698927;28;21803;-65
2021/07/05 00:14:58;;;;;;;8.90;8.10;;;;;;;22.22;53.32;100407.44;696826;28;69427;-65
2021/07/05 00:15:23;;;;;;;8.80;8.00;;;;;;;22.20;53.55;100410.47;698585;28;44918;-63
2021/07/05 00:15:45;;;;;;;8.55;7.85;;;;;;;22.20;53.60;100406.88;695594;28;113652;-64
2021/07/05 00:16:06;;;;;;;8.88;8.00;;;;;;;22.19;53.49;100410.72;698519;28;46303;-63
2021/07/05 00:16:27;;;;;;;8.50;7.80;;;;;;;22.18;53.51;100407.16;698948;28;20555;-64
2021/07/05 00:16:48;;;;;;;8.80;8.00;;;;;;;22.19;53.69;100414.28;699621;28;12408;-65
2021/07/05 00:17:09;;;;;;;9.50;8.60;;;;;;;22.19;53.47;100414.28;698939;28;16465;-64
2021/07/05 00:17:31;;;;;;;9.02;8.23;;;;;;;22.20;53.60;100417.91;698294;28;20925;-64
2021/07/05 00:17:55;;;;;;;8.75;7.95;;;;;;;22.20;53.56;100412.41;698284;28;42644;-64
2021/07/05 00:18:16;;;;;;;8.82;8.05;;;;;;;22.18;53.45;100412.66;696488;28;89996;-63
2021/07/05 00:18:37;;;;;;;8.63;7.85;;;;;;;22.18;53.56;100412.66;699342;28;24421;-64
2021/07/05 00:18:59;;;;;;;9.40;8.40;;;;;;;22.18;53.62;100411.81;698747;28;20117;-65
2021/07/05 00:19:21;;;;;;;9.30;8.40;;;;;;;22.16;53.61;100412.06;698091;28;46104;-64
2021/07/05 00:19:42;;;;;;;8.77;8.00;;;;;;;22.16;53.60;100409.31;699031;28;24359;-63
2021/07/05 00:20:05;;;;;;;9.38;8.52;;;;;;;22.14;53.54;100406.00;698494;28;47081;-64
2021/07/05 00:20:28;;;;;;;9.15;8.38;;;;;;;22.16;53.71;100409.31;697297;28;57981;-64
2021/07/05 00:20:49;;;;;;;8.52;7.72;;;;;;;22.16;53.61;100409.31;696248;28;81487;-63
2021/07/05 00:21:10;;;;;;;9.05;8.25;;;;;;;22.17;53.49;100405.47;697609;28;41456;-65
2021/07/05 00:21:31;;;;;;;9.02;8.30;;;;;;;22.17;53.62;100404.66;698895;28;24324;-65
2021/07/05 00:21:53;;;;;;;8.80;8.10;;;;;;;22.16;53.75;100412.06;699496;28;22510;-64
2021/07/05 00:22:15;;;;;;;8.57;7.80;;;;;;;22.16;53.80;100414.81;699072;28;21538;-64
2021/07/05 00:22:36;;;;;;;8.88;8.05;;;;;;;22.17;53.63;100410.16;697930;28;47236;-63
2021/07/05 00:22:57;;;;;;;8.70;7.95;;;;;;;22.17;53.64;100412.91;699403;28;21502;-64
2021/07/05 00:23:20;;;;;;;8.57;7.88;;;;;;;22.15;53.65;100404.94;698014;28;46349;-64
2021/07/05 00:23:42;;;;;;;9.10;8.40;;;;;;;22.17;53.88;100412.91;698926;28;33250;-64
2021/07/05 00:24:04;;;;;;;9.50;8.50;;;;;;;22.17;53.56;100407.41;699228;28;1823;-64
2021/07/05 00:24:25;;;;;;;8.77;7.93;;;;;;;22.17;53.63;100413.75;699260;28;11534;-65
2021/07/05 00:24:46;;;;;;;8.60;7.80;;;;;;;22.17;53.71;100410.16;699446;28;23695;-63
2021/07/05 00:25:10;;;;;;;8.80;8.00;;;;;;;22.16;53.60;100405.75;699387;28;909;-64
2021/07/05 00:25:32;;;;;;;9.30;8.40;;;;;;;22.16;53.59;100411.25;698262;28;44382;-64
2021/07/05 00:25:56;;;;;;;9.00;8.10;;;;;;;22.17;53.46;100407.41;698424;28;37806;-64
2021/07/05 00:26:18;;;;;;;9.20;8.23;;;;;;;22.18;53.49;100409.06;700168;28;1004;-66
2021/07/05 00:26:39;;;;;;;11.05;8.38;;;;;;;22.19;53.39;100407.97;698341;28;46256;-64
2021/07/05 00:27:04;;;;;;;8.93;8.10;;;;;;;22.18;53.36;100407.16;698202;28;925;-65
2021/07/05 00:27:25;;;;;;;8.35;7.65;;;;;;;22.19;53.54;100408.78;696284;28;61663;-65
2021/07/05 00:27:46;;;;;;;8.57;7.70;;;;;;;22.19;53.57;100406.03;698672;28;24473;-63
2021/07/05 00:28:07;;;;;;;9.45;7.90;;;;;;;22.19;53.53;100408.78;698999;28;13437;-65
2021/07/05 00:28:29;;;;;;;9.32;8.40;;;;;;;22.20;53.33;100404.13;698827;28;16840;-63
2021/07/05 00:28:51;;;;;;;9.57;8.68;;;;;;;22.20;53.42;100398.63;698817;28;22491;-64
2021/07/05 00:29:12;;;;;;;9.27;8.38;;;;;;;22.21;53.37;100408.53;698914;28;16396;-64
2021/07/05 00:29:33;;;;;;;9.32;8.40;;;;;;;22.21;53.24;100409.38;697952;28;23116;-64
2021/07/05 00:29:54;;;;;;;9.48;8.57;;;;;;;22.22;53.22;100396.44;699571;28;19956;-64
2021/07/05 00:30:17;;;;;;;9.77;8.88;;;;;;;22.21;53.31;100395.63;699013;28;3736;-64
2021/07/05 00:30:39;;;;;;;9.30;8.50;;;;;;;22.21;53.20;100392.88;697359;28;62107;-64
2021/07/05 00:31:00;;;;;;;9.07;8.18;;;;;;;22.21;53.28;100403.88;698396;28;21006;-65
2021/07/05 00:31:21;;;;;;;9.07;8.27;;;;;;;22.21;53.14;100398.38;699175;28;23403;-62
2021/07/05 00:31:43;;;;;;;9.27;8.38;;;;;;;22.20;53.31;100396.72;698635;28;11619;-63
2021/07/05 00:32:05;;;;;;;8.90;8.05;;;;;;;22.20;53.13;100399.47;698186;28;38495;-64
2021/07/05 00:32:26;;;;;;;8.93;8.13;;;;;;;22.21;53.20;100395.63;698702;28;34734;-64
2021/07/05 00:32:48;;;;;;;9.30;8.40;;;;;;;22.22;53.09;100404.69;697912;28;14302;-65
2021/07/05 00:33:10;;;;;;;9.70;8.75;;;;;;;22.22;53.05;100399.19;699451;28;16834;-65
2021/07/05 00:33:32;;;;;;;9.23;8.40;;;;;;;22.22;53.05;100399.19;697957;28;41732;-65
2021/07/05 00:33:53;;;;;;;9.10;8.25;;;;;;;22.22;52.99;100407.44;698475;28;35253;-63
2021/07/05 00:34:15;;;;;;;8.90;8.10;;;;;;;22.22;53.11;100399.19;699174;28;21314;-63
2021/07/05 00:34:36;;;;;;;9.68;8.88;;;;;;;22.22;53.04;100399.19;699674;28;14036;-63
2021/07/05 00:34:57;;;;;;;9.32;8.52;;;;;;;22.22;53.09;100399.19;698945;28;16847;-65
2021/07/05 00:35:20;;;;;;;9.03;8.23;;;;;;;22.22;53.05;100390.94;698402;28;44670;-65
2021/07/05 00:35:41;;;;;;;9.20;8.40;;;;;;;22.22;52.97;100401.94;696667;28;92210;-65
2021/07/05 00:36:02;;;;;;;9.18;8.27;;;;;;;22.22;52.82;100401.94;698980;28;24343;-64
2021/07/05 00:36:23;;;;;;;10.68;8.50;;;;;;;22.21;52.86;100412.13;699716;28;12504;-64
2021/07/05 00:36:45;;;;;;;10.18;8.18;;;;;;;22.23;52.94;100411.88;699730;28;3974;-64
2021/07/05 00:37:07;;;;;;;9.18;8.38;;;;;;;22.22;53.01;100402.75;697690;28;47346;-63
2021/07/05 00:37:28;;;;;;;9.55;8.30;;;;;;;22.22;53.02;100412.94;699107;28;17870;-64
2021/07/05 00:37:49;;;;;;;9.43;8.50;;;;;;;22.19;52.91;100397.78;699346;28;19313;-62
2021/07/05 00:38:11;;;;;;;9.45;8.48;;;;;;;22.20;53.18;100407.72;698489;28;34410;-64
2021/07/05 00:38:33;;;;;;;10.05;7.97;;;;;;;22.19;53.24;100402.47;698069;28;44550;-64
2021/07/05 00:38:55;;;;;;;9.02;8.23;;;;;;;22.20;53.10;100404.13;697954;28;47225;-63
2021/07/05 00:39:16;;;;;;;9.35;8.50;;;;;;;22.19;53.27;100402.47;696168;28;19475;-64
2021/07/05 00:39:37;;;;;;;9.30;8.50;;;;;;;22.19;53.13;100403.28;695935;28;22512;-65
2021/07/05 00:39:59;;;;;;;9.20;8.40;;;;;;;22.19;53.16;100402.47;696157;28;21512;-63
2021/07/05 00:40:21;;;;;;;9.85;8.20;;;;;;;22.19;53.01;100402.47;694923;28;47154;-64
2021/07/05 00:40:42;;;;;;;8.82;7.80;;;;;;;22.19;52.97;100407.97;695981;28;33403;-64
2021/07/05 00:41:03;;;;;;;9.02;8.23;;;;;;;22.19;52.96;100405.22;695848;28;32232;-65
2021/07/05 00:41:29;;;;;;;8.70;7.80;;;;;;;22.18;53.27;100404.41;699161;28;23609;-64
2021/07/05 00:41:50;;;;;;;8.82;8.00;;;;;;;22.17;53.54;100404.66;694604;28;138136;-64
2021/07/05 00:42:11;;;;;;;8.75;8.02;;;;;;;22.17;53.53;100401.91;699056;28;23449;-64
2021/07/05 00:42:32;;;;;;;8.98;8.07;;;;;;;22.15;53.55;100399.44;699370;28;22344;-63
2021/07/05 00:42:55;;;;;;;9.25;8.40;;;;;;;22.13;53.48;100404.34;699160;28;22404;-65
2021/07/05 00:43:16;;;;;;;9.13;8.20;;;;;;;22.14;53.46;100408.75;696878;28;69375;-64
2021/07/05 00:43:37;;;;;;;9.25;8.35;;;;;;;22.12;53.39;100400.78;698441;28;17124;-64
2021/07/05 00:43:59;;;;;;;9.23;8.32;;;;;;;22.13;53.18;100398.84;698820;28;18723;-64
2021/07/05 00:44:21;;;;;;;9.55;8.65;;;;;;;22.13;53.12;100399.69;697466;28;46279;-64
2021/07/05 00:44:42;;;;;;;9.05;8.25;;;;;;;22.12;53.40;100400.78;697955;28;46360;-63
2021/07/05 00:45:05;;;;;;;8.15;7.50;;;;;;;22.11;53.39;100403.78;699406;28;1819;-64
2021/07/05 00:45:28;;;;;;;8.60;7.90;;;;;;;22.09;53.46;100400.47;697310;28;63994;-63
2021/07/05 00:45:50;;;;;;;8.77;8.05;;;;;;;22.09;53.60;100405.97;698268;28;46398;-64
2021/07/05 00:46:11;;;;;;;9.35;8.45;;;;;;;22.08;53.61;100399.63;698312;28;46420;-63
2021/07/05 00:46:32;;;;;;;9.27;8.48;;;;;;;22.07;53.80;100406.22;698921;28;18652;-64
2021/07/05 00:46:53;;;;;;;9.00;8.20;;;;;;;22.07;53.55;100405.38;698851;28;10641;-64
2021/07/05 00:47:14;;;;;;;9.13;8.30;;;;;;;22.02;54.00;100395.19;699719;28;1181;-63
2021/07/05 00:47:36;;;;;;;8.73;8.02;;;;;;;22.03;53.87;100401.53;698924;28;22402;-64
2021/07/05 00:47:57;;;;;;;8.95;8.20;;;;;;;22.01;54.45;100403.72;698803;28;30069;-64
2021/07/05 00:48:19;;;;;;;9.18;8.27;;;;;;;21.99;54.26;100403.13;698245;28;42575;-64
2021/07/05 00:48:40;;;;;;;8.93;8.02;;;;;;;21.96;54.25;100401.75;699438;28;21510;-63
2021/07/05 00:49:02;;;;;;;9.18;8.27;;;;;;;21.94;54.21;100399.25;698517;28;22373;-64
2021/07/05 00:49:23;;;;;;;9.23;8.32;;;;;;;21.93;54.44;100403.09;691732;28;46346;-64
2021/07/05 00:49:44;;;;;;;9.30;8.43;;;;;;;21.90;54.58;100403.59;693326;28;16584;-64
2021/07/05 00:50:08;;;;;;;8.77;7.97;;;;;;;21.87;54.74;100404.13;693102;28;18337;-63
2021/07/05 00:50:29;;;;;;;9.48;8.57;;;;;;;21.88;54.85;100407.69;692175;28;58592;-64
2021/07/05 00:50:52;;;;;;;9.20;8.40;;;;;;;21.84;54.84;100401.91;689614;28;45255;-63
2021/07/05 00:51:13;;;;;;;8.93;8.18;;;;;;;21.83;54.93;100405.72;694430;28;44155;-63
2021/07/05 00:51:34;;;;;;;9.05;8.25;;;;;;;21.81;54.67;100398.84;692576;28;24189;-64
2021/07/05 00:51:55;;;;;;;8.93;8.13;;;;;;;21.81;54.97;100401.59;692951;28;22414;-64
2021/07/05 00:52:17;;;;;;;9.55;8.55;;;;;;;21.80;54.97;100409.00;693987;28;10772;-64
2021/07/05 00:52:39;;;;;;;9.80;8.88;;;;;;;21.80;54.87;100400.75;693049;28;46727;-63
2021/07/05 00:53:02;;;;;;;10.90;8.10;;;;;;;21.78;55.10;100391.94;695251;28;46363;-64
2021/07/05 00:53:24;;;;;;;9.40;8.23;;;;;;;21.77;55.19;100407.63;694277;28;67257;-63
2021/07/05 00:53:47;;;;;;;8.60;7.90;;;;;;;21.76;55.36;100403.19;698426;28;45238;-64
2021/07/05 00:54:09;;;;;;;9.05;8.25;;;;;;;21.73;55.33;100394.66;697175;28;70219;-63
2021/07/05 00:54:31;;;;;;;9.18;8.38;;;;;;;21.74;55.48;100402.63;698399;28;46460;-64
2021/07/05 00:54:52;;;;;;;9.25;8.45;;;;;;;21.74;55.71;100407.28;698790;28;40422;-64
2021/07/05 00:55:15;;;;;;;9.05;8.25;;;;;;;21.72;55.40;100401.22;697842;28;20809;-64
2021/07/05 00:55:36;;;;;;;9.48;8.68;;;;;;;21.73;55.67;100394.66;698221;28;40579;-64
2021/07/05 00:55:58;;;;;;;9.30;8.30;;;;;;;21.70;55.73;100398.72;699659;28;859;-64
2021/07/05 00:56:21;;;;;;;9.65;8.65;;;;;;;21.71;55.68;100396.84;699214;28;15828;-63
2021/07/05 00:56:43;;;;;;;9.60;8.63;;;;;;;21.71;55.54;100399.59;698403;28;1851;-63
2021/07/05 00:57:19;;;;;;;9.80;8.88;;;;;;;21.69;55.77;100394.34;697253;28;1460;-64
2021/07/05 00:57:40;;;;;;;9.43;8.60;;;;;;;21.69;55.68;100399.00;695229;28;127615;-63
2021/07/05 00:58:03;;;;;;;8.80;8.10;;;;;;;21.70;55.70;100398.72;699157;28;984;-65
2021/07/05 00:58:25;;;;;;;9.00;8.20;;;;;;;21.70;55.50;100400.66;698781;28;1558;-64
2021/07/05 00:58:46;;;;;;;9.32;8.40;;;;;;;21.70;55.70;100395.97;698256;28;22341;-63
2021/07/05 00:59:08;;;;;;;9.27;8.45;;;;;;;21.69;55.56;100399.84;697741;28;35152;-64
2021/07/05 00:59:29;;;;;;;8.98;8.18;;;;;;;21.70;55.56;100406.16;698809;28;10233;-63
2021/07/05 00:59:52;;;;;;;8.38;7.63;;;;;;;21.71;55.51;100399.59;698919;28;22479;-64
2021/07/05 01:00:18;;;;;;;8.75;8.05;;;;;;;21.70;55.52;100403.41;697866;28;37632;-63
2021/07/05 01:00:39;;;;;;;9.40;8.57;;;;;;;21.68;55.41;100398.19;696966;28;88607;-63
2021/07/05 01:01:01;;;;;;;9.38;8.50;;;;;;;21.69;55.73;100401.75;698581;28;24354;-64
2021/07/05 01:01:22;;;;;;;8.70;8.00;;;;;;;21.68;55.72;100403.66;697980;28;46328;-64
2021/07/05 01:01:43;;;;;;;8.48;7.68;;;;;;;21.68;55.58;100397.34;698700;28;22383;-64
2021/07/05 01:02:04;;;;;;;9.07;8.27;;;;;;;21.69;55.27;100404.50;698709;28;21597;-63
2021/07/05 01:02:27;;;;;;;9.35;8.45;;;;;;;21.70;55.09;100403.41;698684;28;22316;-63
2021/07/05 01:02:50;;;;;;;9.63;8.77;;;;;;;21.69;55.22;100399.84;697150;28;82811;-63
2021/07/05 01:03:11;;;;;;;9.65;8.65;;;;;;;21.69;55.30;100396.25;699513;28;930;-63
2021/07/05 01:03:33;;;;;;;8.52;7.75;;;;;;;21.69;55.15;100401.75;698638;28;21533;-64
2021/07/05 01:03:54;;;;;;;8.77;8.07;;;;;;;21.69;54.95;100397.09;698407;28;45311;-64
2021/07/05 01:04:15;;;;;;;8.63;7.93;;;;;;;21.69;54.95;100399.84;699146;28;21548;-63
2021/07/05 01:04:36;;;;;;;8.63;7.82;;;;;;;21.69;55.09;100391.59;699110;28;23401;-65
2021/07/05 01:04:58;;;;;;;9.75;8.73;;;;;;;21.71;55.20;100396.84;698282;28;23512;-64
2021/07/05 01:05:22;;;;;;;9.38;8.45;;;;;;;21.71;55.19;100402.34;699143;28;23458;-63
2021/07/05 01:05:43;;;;;;;9.45;8.55;;;;;;;21.68;55.12;100391.84;696822;28;92210;-63
2021/07/05 01:06:04;;;;;;;9.40;8.52;;;;;;;21.70;55.12;100397.91;698218;28;44380;-64
2021/07/05 01:06:26;;;;;;;8.95;8.25;;;;;;;21.71;55.35;100402.34;698675;28;21049;-64
2021/07/05 01:06:48;;;;;;;9.05;8.23;;;;;;;21.71;55.20;100402.34;697538;28;44390;-63
2021/07/05 01:07:10;;;;;;;9.30;8.35;;;;;;;21.69;55.34;100405.34;698236;28;47778;-63
2021/07/05 01:07:31;;;;;;;9.18;8.38;;;;;;;21.70;55.43;100400.66;697722;28;22457;-63
2021/07/05 01:07:52;;;;;;;9.52;8.63;;;;;;;21.69;55.30;100401.75;699376;28;17847;-63
2021/07/05 01:08:14;;;;;;;9.85;8.95;;;;;;;21.69;55.22;100401.75;699207;28;21577;-64
2021/07/05 01:08:35;;;;;;;9.60;8.70;;;;;;;21.68;55.36;100400.94;697872;28;46336;-63
2021/07/05 01:08:57;;;;;;;9.95;9.05;;;;;;;21.68;55.35;100405.59;698756;28;20831;-64
2021/07/05 01:09:18;;;;;;;9.53;8.43;;;;;;;21.67;55.56;100395.69;696280;28;70224;-64
2021/07/05 01:09:40;;;;;;;9.07;8.23;;;;;;;21.67;55.53;100403.94;698189;28;46358;-63
2021/07/05 01:10:06;;;;;;;8.88;7.97;;;;;;;21.67;55.58;100401.19;696941;28;46391;-63
2021/07/05 01:10:27;;;;;;;11.38;8.55;;;;;;;21.65;55.71;100400.63;694189;28;159104;-64
2021/07/05 01:10:49;;;;;;;9.10;8.25;;;;;;;21.64;55.58;100408.00;697897;28;41807;-64
2021/07/05 01:11:10;;;;;;;9.35;8.55;;;;;;;21.63;55.71;100402.78;698508;28;23438;-63
2021/07/05 01:11:32;;;;;;;8.73;8.05;;;;;;;21.63;55.85;100400.03;699577;28;17708;-63
2021/07/05 01:11:53;;;;;;;9.23;8.32;;;;;;;21.63;55.75;100408.28;697496;28;46320;-64
2021/07/05 01:12:14;;;;;;;9.20;8.40;;;;;;;21.62;56.08;100401.13;698750;28;20864;-64
2021/07/05 01:12:38;;;;;;;9.32;8.52;;;;;;;21.58;55.79;100396.16;698694;28;22427;-63
2021/07/05 01:13:00;;;;;;;9.38;8.55;;;;;;;21.60;55.86;100396.72;696274;28;92176;-64
2021/07/05 01:13:22;;;;;;;9.02;8.27;;;;;;;21.59;56.04;100397.81;697825;28;47541;-64
2021/07/05 01:13:43;;;;;;;9.27;8.48;;;;;;;21.59;55.97;100402.47;699251;28;21524;-64
2021/07/05 01:14:04;;;;;;;9.52;8.63;;;;;;;21.59;56.06;100399.72;699126;28;23482;-64
2021/07/05 01:14:25;;;;;;;9.52;8.63;;;;;;;21.57;56.04;100397.25;699179;28;21521;-63
2021/07/05 01:14:46;;;;;;;9.48;8.68;;;;;;;21.56;56.21;100398.31;699082;28;6752;-63
2021/07/05 01:15:08;;;;;;;9.18;8.30;;;;;;;21.56;56.08;100398.31;698722;28;22634;-64
2021/07/05 01:15:32;;;;;;;9.38;8.20;;;;;;;21.56;56.21;100400.25;698023;28;45147;-64
2021/07/05 01:15:53;;;;;;;9.57;8.60;;;;;;;21.55;56.25;100395.81;699165;28;14353;-63
2021/07/05 01:16:15;;;;;;;9.20;8.43;;;;;;;21.54;56.11;100397.75;699765;28;938;-64
2021/07/05 01:16:36;;;;;;;9.43;8.60;;;;;;;21.55;55.97;100402.16;699376;28;9727;-65
2021/07/05 01:16:58;;;;;;;9.20;8.40;;;;;;;21.55;56.09;100395.81;698601;28;22330;-64
2021/07/05 01:17:20;;;;;;;8.88;8.07;;;;;;;21.54;56.38;100395.00;698209;28;46378;-64
2021/07/05 01:17:41;;;;;;;10.18;8.43;;;;;;;21.53;56.16;100396.09;699159;28;19820;-64
2021/07/05 01:18:05;;;;;;;11.23;8.48;;;;;;;21.53;56.16;100395.25;698000;28;46772;-63
2021/07/05 01:18:27;;;;;;;10.38;8.90;;;;;;;21.52;56.13;100399.94;695302;28;92091;-65
2021/07/05 01:18:48;;;;;;;9.10;8.30;;;;;;;21.51;56.22;100403.75;698844;28;23403;-63
2021/07/05 01:19:09;;;;;;;9.68;8.82;;;;;;;21.52;56.30;100396.34;699211;28;21539;-63
2021/07/05 01:19:30;;;;;;;8.95;8.25;;;;;;;21.52;56.33;100401.84;698476;28;22414;-64
2021/07/05 01:19:53;;;;;;;9.15;8.35;;;;;;;21.53;56.26;100398.00;698502;28;46298;-64
2021/07/05 01:20:18;;;;;;;9.63;8.73;;;;;;;21.51;56.19;100387.28;696765;28;44409;-63
2021/07/05 01:20:40;;;;;;;9.30;8.50;;;;;;;21.51;56.20;100390.03;695778;28;113674;-64
2021/07/05 01:21:04;;;;;;;9.73;8.70;;;;;;;21.52;56.20;100388.94;697256;28;68977;-63
2021/07/05 01:21:25;;;;;;;9.48;8.57;;;;;;;21.52;56.26;100388.94;697347;28;70050;-63
2021/07/05 01:21:46;;;;;;;9.40;8.60;;;;;;;21.52;56.35;100391.69;698850;28;22396;-64
2021/07/05 01:22:07;;;;;;;9.23;8.43;;;;;;;21.50;56.29;100384.78;698384;28;23512;-63
2021/07/05 01:22:29;;;;;;;9.20;8.40;;;;;;;21.53;56.27;100387.84;698172;28;46355;-64
2021/07/05 01:22:51;;;;;;;9.25;8.35;;;;;;;21.53;56.34;100393.34;697539;28;47512;-64
2021/07/05 01:23:12;;;;;;;9.23;8.38;;;;;;;21.53;56.35;100387.03;698103;28;45223;-64
2021/07/05 01:23:34;;;;;;;9.70;8.70;;;;;;;21.52;56.42;100388.09;698803;28;21520;-64
2021/07/05 01:23:55;;;;;;;9.30;8.40;;;;;;;21.52;56.25;100385.34;699292;28;20806;-64
2021/07/05 01:24:17;;;;;;;9.77;8.40;;;;;;;21.50;56.47;100388.34;699075;28;22400;-63
2021/07/05 01:24:38;;;;;;;9.23;8.43;;;;;;;21.49;56.77;100391.38;698122;28;44283;-63
2021/07/05 01:24:59;;;;;;;9.75;8.95;;;;;;;21.47;56.80;100388.03;697713;28;41711;-65
2021/07/05 01:25:22;;;;;;;9.40;8.50;;;;;;;21.44;56.58;100386.59;699079;28;6285;-64
2021/07/05 01:25:44;;;;;;;9.13;8.32;;;;;;;21.42;56.81;100383.31;697389;28;69525;-64
2021/07/05 01:26:05;;;;;;;9.38;8.48;;;;;;;21.38;56.95;100393.97;698258;28;46398;-64
2021/07/05 01:26:26;;;;;;;9.45;8.65;;;;;;;21.37;56.76;100389.56;697961;28;44637;-64
2021/07/05 01:26:48;;;;;;;9.20;8.30;;;;;;;21.35;56.90;100389.00;697809;28;22876;-63
2021/07/05 01:27:09;;;;;;;8.82;7.93;;;;;;;21.33;56.90;100387.59;699043;28;9820;-66
2021/07/05 01:27:38;;;;;;;8.90;8.20;;;;;;;21.30;57.00;100388.09;697708;28;60487;-63
2021/07/05 01:28:02;;;;;;;9.40;8.07;;;;;;;21.28;57.19;100385.63;695438;28;1293;-64
2021/07/05 01:28:23;;;;;;;9.40;8.50;;;;;;;21.27;57.23;100385.88;694084;28;46325;-64
2021/07/05 01:28:44;;;;;;;9.63;8.77;;;;;;;21.24;57.34;100387.22;695903;28;32514;-64
2021/07/05 01:29:06;;;;;;;9.60;8.70;;;;;;;21.22;57.31;100384.75;694579;28;43423;-63
2021/07/05 01:29:27;;;;;;;9.48;8.68;;;;;;;21.19;57.39;100382.50;693582;28;46445;-63
2021/07/05 01:29:49;;;;;;;9.90;8.90;;;;;;;21.17;57.57;100379.16;691556;28;46308;-64
2021/07/05 01:30:11;;;;;;;9.20;8.30;;;;;;;21.16;57.55;100382.16;697756;28;46359;-64
2021/07/05 01:30:34;;;;;;;9.52;8.63;;;;;;;21.15;57.48;100386.84;699512;28;942;-64
2021/07/05 01:30:56;;;;;;;9.75;8.85;;;;;;;21.14;57.49;100389.84;697377;28;53999;-64
2021/07/05 01:31:23;;;;;;;9.10;8.30;;;;;;;21.12;57.72;100381.03;697127;28;60656;-65
2021/07/05 01:31:44;;;;;;;11.00;9.15;;;;;;;21.11;57.54;100384.88;698148;28;21540;-64
2021/07/05 01:32:07;;;;;;;9.18;8.40;;;;;;;21.11;57.64;100379.38;698734;28;22282;-64
2021/07/05 01:32:28;;;;;;;9.40;8.60;;;;;;;21.11;57.80;100390.34;697541;28;69501;-64
2021/07/05 01:32:53;;;;;;;9.52;8.73;;;;;;;21.09;57.57;100379.63;699169;28;21543;-63
2021/07/05 01:33:15;;;;;;;9.00;8.20;;;;;;;21.10;57.72;100384.03;696523;28;83129;-65
2021/07/05 01:33:37;;;;;;;9.43;8.50;;;;;;;21.09;57.66;100385.13;698091;28;46495;-63
2021/07/05 01:33:58;;;;;;;10.45;8.48;;;;;;;21.10;57.62;100378.56;698472;28;45155;-64
2021/07/05 01:34:19;;;;;;;9.20;8.25;;;;;;;21.11;57.83;100382.13;699615;28;5788;-63
2021/07/05 01:34:41;;;;;;;9.95;8.77;;;;;;;21.13;57.69;100377.19;699306;28;21423;-63
2021/07/05 01:35:03;;;;;;;9.13;8.23;;;;;;;21.13;57.69;100379.94;698594;28;22380;-63
2021/07/05 01:35:25;;;;;;;9.13;8.40;;;;;;;21.15;57.60;100381.34;697656;28;57821;-63
2021/07/05 01:35:46;;;;;;;8.98;8.13;;;;;;;21.16;57.53;100382.16;699543;28;17344;-64
2021/07/05 01:36:11;;;;;;;9.50;8.57;;;;;;;21.17;57.49;100386.59;697671;28;22417;-65
2021/07/05 01:36:32;;;;;;;9.40;8.50;;;;;;;21.17;57.43;100381.91;694697;28;124914;-63
2021/07/05 01:36:53;;;;;;;9.40;8.60;;;;;;;21.18;57.52;100383.59;698161;28;14627;-64
2021/07/05 01:37:14;;;;;;;9.88;8.88;;;;;;;21.19;57.37;100387.16;698746;28;19232;-64
2021/07/05 01:37:36;;;;;;;9.40;8.43;;;;;;;21.18;57.52;100380.84;698674;28;16075;-64
2021/07/05 01:37:59;;;;;;;9.48;8.43;;;;;;;21.17;57.63;100381.91;699336;28;11029;-63
2021/07/05 01:38:22;;;;;;;9.32;8.43;;;;;;;21.19;57.61;100381.66;697252;28;70141;-63
2021/07/05 01:38:43;;;;;;;8.93;8.20;;;;;;;21.19;57.49;100388.00;697441;28;68823;-64
2021/07/05 01:39:04;;;;;;;9.32;8.52;;;;;;;21.20;57.63;100383.31;699465;28;14497;-64
2021/07/05 01:39:26;;;;;;;9.65;8.75;;;;;;;21.18;57.72;100380.84;698903;28;15698;-65
2021/07/05 01:39:47;;;;;;;9.25;8.43;;;;;;;21.20;57.56;100380.59;698482;28;46330;-63
2021/07/05 01:40:14;;;;;;;9.70;8.80;;;;;;;21.20;57.48;100381.41;697719;28;23341;-64
2021/07/05 01:40:36;;;;;;;9.43;8.63;;;;;;;21.19;57.46;100381.66;695472;28;136088;-63
2021/07/05 01:41:02;;;;;;;9.70;8.77;;;;;;;21.18;57.50;100383.59;698991;28;14889;-64
2021/07/05 01:41:26;;;;;;;10.05;9.07;;;;;;;21.17;57.43;100381.91;697693;28;61751;-64
2021/07/05 01:41:47;;;;;;;9.73;8.68;;;;;;;21.17;57.22;100375.59;697544;28;36909;-64
2021/07/05 01:42:10;;;;;;;9.55;8.68;;;;;;;21.16;57.37;100376.69;698931;28;18970;-64
2021/07/05 01:42:32;;;;;;;9.52;8.73;;;;;;;21.16;57.37;100374.78;697287;28;69417;-63
2021/07/05 01:42:56;;;;;;;9.75;8.85;;;;;;;21.15;57.48;100373.09;698220;28;46449;-63
2021/07/05 01:43:17;;;;;;;9.70;8.80;;;;;;;21.14;57.37;100376.94;696010;28;87884;-65